Fr8 Pride — V7NW5 — position and weather

sailwx.info

Track history (hours):
 
Tides and Currents Weather Stations Pressure Air Temp Water Temp Dewpoint Dewpoint Depression Visibility Wind Speed Wind Dir Waves Ship Positions

Fr8 Pride

Last reported at 2018-Jun-19 10:28 UTC. Time now 2018-Jun-19 10:54 UTC.
Position N 51°18' E 004°20'.

Length 229 m; draft 8.5 m.

Type: Tanker. MMSI: 538003031.

Date/timePositionNaut miles runAvg speedWind from/ knotsBaromVisibWave heightAir tempDewpointWater temp
2018-Jun-19 10:28N 51°18' E 004°20'0 0.0
2018-Jun-19 09:48N 51°18' E 004°20'0 0.0
2018-Jun-19 09:24N 51°18' E 004°20'0 0.0
2018-Jun-19 08:58N 51°18' E 004°20'0 0.0
2018-Jun-19 08:27N 51°18' E 004°20'0 0.0
2018-Jun-19 07:56N 51°18' E 004°20'0 0.0
2018-Jun-19 07:25N 51°18' E 004°20'0 0.0
2018-Jun-19 06:53N 51°18' E 004°20'0 0.0
2018-Jun-19 06:27N 51°18' E 004°20'0 0.0
2018-Jun-19 05:55N 51°18' E 004°20'0 0.0
2018-Jun-19 05:23N 51°18' E 004°20'0 0.0
2018-Jun-19 05:00N 51°18' E 004°20'0 0.0
2018-Jun-19 04:30N 51°18' E 004°20'0 0.3
2018-Jun-19 04:01N 51°18' E 004°20'1 2.3
2018-Jun-19 03:31N 51°19' E 004°19'2 4.8
2018-Jun-19 03:01N 51°21' E 004°17'0 0.2
2018-Jun-19 02:30N 51°21' E 004°17'0 0.0
2018-Jun-19 02:00N 51°21' E 004°17'0 0.0
2018-Jun-19 01:30N 51°21' E 004°17'0 0.2
2018-Jun-19 01:00N 51°21' E 004°17'2 3.3
2018-Jun-19 00:30N 51°21' E 004°14'4 7.0
2018-Jun-19 00:00N 51°23' E 004°10'5 9.3
2018-Jun-18 23:31N 51°23' E 004°02'3 6.3
2018-Jun-18 23:01N 51°26' E 003°58'612.5
2018-Jun-18 22:30N 51°21' E 003°52'4 8.5
2018-Jun-18 22:00N 51°22' E 003°45'510.5
2018-Jun-18 21:30N 51°26' E 003°40'4 8.9
2018-Jun-18 21:00N 51°25' E 003°33'510.5
2018-Jun-18 20:30N 51°25' E 003°25'5 9.5
2018-Jun-18 20:00N 51°24' E 003°17'5 9.2
2018-Jun-18 19:30N 51°24' E 003°10'612.4
2018-Jun-18 19:00N 51°24' E 003°00'815.2
2018-Jun-18 18:30N 51°22' E 002°48'711.8
2018-Jun-18 17:53N 51°23' E 002°37'3 8.7
2018-Jun-18 17:30N 51°26' E 002°35'1 2.0
2018-Jun-18 16:58N 51°27' E 002°36'0 0.1
2018-Jun-18 16:26N 51°27' E 002°37'0 0.2
2018-Jun-18 16:00N 51°27' E 002°37'0 0.1
2018-Jun-18 15:27N 51°27' E 002°37'0 0.1
2018-Jun-18 14:59N 51°27' E 002°37'0 0.0
2018-Jun-18 14:30N 51°27' E 002°37'0 0.1
2018-Jun-18 13:59N 51°27' E 002°37'0 0.2
2018-Jun-18 13:31N 51°27' E 002°37'0 0.3
2018-Jun-18 12:58N 51°27' E 002°36'0 0.1
2018-Jun-18 12:27N 51°27' E 002°36'0 0.0
2018-Jun-18 11:24N 51°27' E 002°36'0 0.1
2018-Jun-18 10:56N 51°27' E 002°36'0 0.3
2018-Jun-18 10:23N 51°27' E 002°36'0 0.3
2018-Jun-18 09:55N 51°27' E 002°37'0 0.0
2018-Jun-18 09:24N 51°27' E 002°37'0 0.1
2018-Jun-18 08:59N 51°27' E 002°36'0 0.1
2018-Jun-18 08:29N 51°27' E 002°37'0 0.0
2018-Jun-18 07:53N 51°27' E 002°37'0 0.0
2018-Jun-18 07:29N 51°27' E 002°37'0 0.0
2018-Jun-18 06:59N 51°27' E 002°37'0 0.0
2018-Jun-18 06:20N 51°27' E 002°37'0 0.0
2018-Jun-18 06:00N 51°27' E 002°37'0 0.0
2018-Jun-18 05:29N 51°27' E 002°37'0 0.1
2018-Jun-18 04:59N 51°27' E 002°36'0 0.1
2018-Jun-18 04:31N 51°27' E 002°37'0 0.1
2018-Jun-18 03:59N 51°27' E 002°37'0 0.1
2018-Jun-18 03:21N 51°27' E 002°37'0 0.0
2018-Jun-18 02:58N 51°27' E 002°37'0 0.0
2018-Jun-18 02:31N 51°27' E 002°37'0 0.0
2018-Jun-18 01:46N 51°27' E 002°37'0 0.0
2018-Jun-18 01:21N 51°27' E 002°37'0 0.2
2018-Jun-18 00:59N 51°27' E 002°37'0 0.3
2018-Jun-18 00:30N 51°27' E 002°36'0 0.1
2018-Jun-17 23:40N 51°27' E 002°36'0 0.1
2018-Jun-17 23:13N 51°27' E 002°36'0 0.2
2018-Jun-17 22:56N 51°27' E 002°36'0 0.3
2018-Jun-17 22:31N 51°27' E 002°37'0 0.1
2018-Jun-17 21:04N 51°27' E 002°36'0 0.1
2018-Jun-17 20:38N 51°27' E 002°37'0 0.3
2018-Jun-17 20:29N 51°27' E 002°36'0 0.1
2018-Jun-17 19:47N 51°27' E 002°37'0 0.0
2018-Jun-17 19:26N 51°27' E 002°37'0 0.2
2018-Jun-17 18:56N 51°27' E 002°36'0 0.2
2018-Jun-17 18:30N 51°27' E 002°37'0 0.1
2018-Jun-17 17:58N 51°27' E 002°36'0 0.1
2018-Jun-17 17:28N 51°27' E 002°36'0 0.0
2018-Jun-17 16:58N 51°27' E 002°36'0 0.0
2018-Jun-17 16:23N 51°27' E 002°36'0 0.2
2018-Jun-17 15:58N 51°27' E 002°37'0 0.0
2018-Jun-17 15:28N 51°27' E 002°37'0 0.0
2018-Jun-17 14:57N 51°27' E 002°37'0 0.1
2018-Jun-17 14:28N 51°27' E 002°37'0 0.1
2018-Jun-17 14:00N 51°27' E 002°37'0 0.0
2018-Jun-17 13:22N 51°27' E 002°37'0 0.2
2018-Jun-17 12:16N 51°27' E 002°36'0 0.1
2018-Jun-17 11:43N 51°27' E 002°36'0 0.0
2018-Jun-17 10:49N 51°27' E 002°36'0 0.0
2018-Jun-17 10:05N 51°27' E 002°36'0 0.0
2018-Jun-17 09:56N 51°27' E 002°36'0 0.2
2018-Jun-17 09:24N 51°27' E 002°36'0 0.3
2018-Jun-17 08:54N 51°27' E 002°37'0 0.0
2018-Jun-17 08:25N 51°27' E 002°37'0 0.1
2018-Jun-17 07:53N 51°27' E 002°37'0 0.1
2018-Jun-17 07:30N 51°27' E 002°37'0 0.0
2018-Jun-17 06:59N 51°27' E 002°37'0 0.0
2018-Jun-17 06:23N 51°27' E 002°37'0 0.0
2018-Jun-17 06:00N 51°27' E 002°37'0 0.0
2018-Jun-17 04:34N 51°27' E 002°37'0 0.1
2018-Jun-17 04:07N 51°27' E 002°37'0 0.1
2018-Jun-17 03:53N 51°27' E 002°37'0 0.0
2018-Jun-17 03:20N 51°27' E 002°37'0 0.1
2018-Jun-17 02:58N 51°27' E 002°37'0 0.0
2018-Jun-17 02:29N 51°27' E 002°37'0 0.0
2018-Jun-17 01:42N 51°27' E 002°37'0 0.1
2018-Jun-17 01:28N 51°27' E 002°37'0 0.0
2018-Jun-17 00:05N 51°27' E 002°37'0 0.4
2018-Jun-16 23:53N 51°27' E 002°36'0 0.2
2018-Jun-16 23:29N 51°27' E 002°36'0 0.1
2018-Jun-16 22:59N 51°27' E 002°36'0 0.0
2018-Jun-16 22:27N 51°27' E 002°36'0 0.2
2018-Jun-16 22:00N 51°27' E 002°36'0 0.2
2018-Jun-16 21:18N 51°27' E 002°36'0 0.2
2018-Jun-16 20:58N 51°27' E 002°37'0 0.0
2018-Jun-16 20:16N 51°27' E 002°37'0 0.1
2018-Jun-16 19:50N 51°27' E 002°37'0 0.2
2018-Jun-16 19:30N 51°27' E 002°37'0 0.0
2018-Jun-16 18:55N 51°27' E 002°37'0 0.1
2018-Jun-16 18:29N 51°27' E 002°36'0 0.1
2018-Jun-16 18:00N 51°27' E 002°37'1 1.6
2018-Jun-16 17:30N 51°28' E 002°37'4 9.0
2018-Jun-16 17:00N 51°25' E 002°31'510.1
2018-Jun-16 16:28N 51°21' E 002°25'714.6
2018-Jun-16 16:00N 51°17' E 002°16'816.4
2018-Jun-16 15:30N 51°13' E 002°05'816.9
2018-Jun-16 15:00N 51°09' E 001°53'917.5
2018-Jun-16 14:30N 51°04' E 001°42'918.0
2018-Jun-16 14:01N 50°58' E 001°31'1217.5
2018-Jun-16 13:20N 50°47' E 001°24'716.4
2018-Jun-16 12:55N 50°41' E 001°19'1615.9
2018-Jun-16 11:56N 50°31' E 000°60'2416.4
2018-Jun-16 10:29N 50°24' E 000°24'917.2
2018-Jun-16 09:59N 50°22' E 000°11'817.0
2018-Jun-16 09:30N 50°19' W 000°01'816.8
2018-Jun-16 09:01N 50°17' W 000°14'816.9
2018-Jun-16 08:30N 50°15' W 000°27'816.6
2018-Jun-16 08:00N 50°13' W 000°39'816.0
2018-Jun-16 07:30N 50°11' W 000°51'1614.9
2018-Jun-16 06:28N 50°07' W 001°15'713.6
2018-Jun-16 05:57N 50°05' W 001°25'1612.0
2018-Jun-16 04:39N 50°01' W 001°49'210.8
2018-Jun-16 04:28N 50°01' W 001°51'5811.5
2018-Jun-15 23:28N 49°45' W 003°18'70 2.7
2018-Jun-14 21:32N 49°36' W 005°06'11 0.6
2018-Jun-14 02:34N 49°39' W 005°21'0 2.7
2018-Jun-14 02:28N 49°39' W 005°22'2 2.5
2018-Jun-14 01:51N 49°38' W 005°23'1 2.3
2018-Jun-14 01:21N 49°37' W 005°24'1 2.0
2018-Jun-14 00:58N 49°37' W 005°25'1 1.9
2018-Jun-14 00:30N 49°36' W 005°24'1 1.9
2018-Jun-14 00:00N 49°35' W 005°24'1 1.8
2018-Jun-13 23:24N 49°34' W 005°23'4 2.2
2018-Jun-13 21:37N 49°32' W 005°17'2 8.2
2018-Jun-13 21:20N 49°31' W 005°14'4 9.4
2018-Jun-13 20:57N 49°28' W 005°10'4 9.2
2018-Jun-13 20:28N 49°25' W 005°06'2 3.7
2018-Jun-13 19:56N 49°24' W 005°04'1 1.9
2018-Jun-13 19:24N 49°24' W 005°05'1 1.6
2018-Jun-13 18:34N 49°25' W 005°07'0 1.9
2018-Jun-13 18:24N 49°25' W 005°07'1 2.1
2018-Jun-13 17:59N 49°25' W 005°09'2 2.2
2018-Jun-13 17:07N 49°25' W 005°11'36 1.1
2018-Jun-12 09:13N 49°17' W 004°18'23 9.2
2018-Jun-12 06:44N 49°05' W 004°48'3 9.5
2018-Jun-12 06:27N 49°03' W 004°51'7 9.8
2018-Jun-12 05:44N 48°60' W 005°00'210.0
2018-Jun-12 05:30N 48°59' W 005°03'510.3
2018-Jun-12 05:00N 48°56' W 005°10'610.7
2018-Jun-12 04:29N 48°54' W 005°18'511.0
2018-Jun-12 04:00N 48°51' W 005°25'610.8
2018-Jun-12 03:29N 48°48' W 005°32'5010.8
2018-Jun-11 22:53N 48°05' W 006°10'  
Track history (hours):
 
Tides and Currents Weather Stations Pressure Air Temp Water Temp Dewpoint Dewpoint Depression Visibility Wind Speed Wind Dir Waves Ship Positions

Fr8 Pride

Last reported at 2018-Jun-19 10:28 UTC. Time now 2018-Jun-19 10:54 UTC.
Position N 51°18' E 004°20'.

Length 229 m; draft 8.5 m.

Type: Tanker. MMSI: 538003031.

Date/timePositionNaut miles runAvg speedWind from/ knotsBaromVisibWave heightAir tempDewpointWater temp
2018-Jun-19 10:28N 51°18' E 004°20'0 0.0
2018-Jun-19 09:48N 51°18' E 004°20'0 0.0
2018-Jun-19 09:24N 51°18' E 004°20'0 0.0
2018-Jun-19 08:58N 51°18' E 004°20'0 0.0
2018-Jun-19 08:27N 51°18' E 004°20'0 0.0
2018-Jun-19 07:56N 51°18' E 004°20'0 0.0
2018-Jun-19 07:25N 51°18' E 004°20'0 0.0
2018-Jun-19 06:53N 51°18' E 004°20'0 0.0
2018-Jun-19 06:27N 51°18' E 004°20'0 0.0
2018-Jun-19 05:55N 51°18' E 004°20'0 0.0
2018-Jun-19 05:23N 51°18' E 004°20'0 0.0
2018-Jun-19 05:00N 51°18' E 004°20'0 0.0
2018-Jun-19 04:30N 51°18' E 004°20'0 0.3
2018-Jun-19 04:01N 51°18' E 004°20'1 2.3
2018-Jun-19 03:31N 51°19' E 004°19'2 4.8
2018-Jun-19 03:01N 51°21' E 004°17'0 0.2
2018-Jun-19 02:30N 51°21' E 004°17'0 0.0
2018-Jun-19 02:00N 51°21' E 004°17'0 0.0
2018-Jun-19 01:30N 51°21' E 004°17'0 0.2
2018-Jun-19 01:00N 51°21' E 004°17'2 3.3
2018-Jun-19 00:30N 51°21' E 004°14'4 7.0
2018-Jun-19 00:00N 51°23' E 004°10'5 9.3
2018-Jun-18 23:31N 51°23' E 004°02'3 6.3
2018-Jun-18 23:01N 51°26' E 003°58'612.5
2018-Jun-18 22:30N 51°21' E 003°52'4 8.5
2018-Jun-18 22:00N 51°22' E 003°45'510.5
2018-Jun-18 21:30N 51°26' E 003°40'4 8.9
2018-Jun-18 21:00N 51°25' E 003°33'510.5
2018-Jun-18 20:30N 51°25' E 003°25'5 9.5
2018-Jun-18 20:00N 51°24' E 003°17'5 9.2
2018-Jun-18 19:30N 51°24' E 003°10'612.4
2018-Jun-18 19:00N 51°24' E 003°00'815.2
2018-Jun-18 18:30N 51°22' E 002°48'711.8
2018-Jun-18 17:53N 51°23' E 002°37'3 8.7
2018-Jun-18 17:30N 51°26' E 002°35'1 2.0
2018-Jun-18 16:58N 51°27' E 002°36'0 0.1
2018-Jun-18 16:26N 51°27' E 002°37'0 0.2
2018-Jun-18 16:00N 51°27' E 002°37'0 0.1
2018-Jun-18 15:27N 51°27' E 002°37'0 0.1
2018-Jun-18 14:59N 51°27' E 002°37'0 0.0
2018-Jun-18 14:30N 51°27' E 002°37'0 0.1
2018-Jun-18 13:59N 51°27' E 002°37'0 0.2
2018-Jun-18 13:31N 51°27' E 002°37'0 0.3
2018-Jun-18 12:58N 51°27' E 002°36'0 0.1
2018-Jun-18 12:27N 51°27' E 002°36'0 0.0
2018-Jun-18 11:24N 51°27' E 002°36'0 0.1
2018-Jun-18 10:56N 51°27' E 002°36'0 0.3
2018-Jun-18 10:23N 51°27' E 002°36'0 0.3
2018-Jun-18 09:55N 51°27' E 002°37'0 0.0
2018-Jun-18 09:24N 51°27' E 002°37'0 0.1
2018-Jun-18 08:59N 51°27' E 002°36'0 0.1
2018-Jun-18 08:29N 51°27' E 002°37'0 0.0
2018-Jun-18 07:53N 51°27' E 002°37'0 0.0
2018-Jun-18 07:29N 51°27' E 002°37'0 0.0
2018-Jun-18 06:59N 51°27' E 002°37'0 0.0
2018-Jun-18 06:20N 51°27' E 002°37'0 0.0
2018-Jun-18 06:00N 51°27' E 002°37'0 0.0
2018-Jun-18 05:29N 51°27' E 002°37'0 0.1
2018-Jun-18 04:59N 51°27' E 002°36'0 0.1
2018-Jun-18 04:31N 51°27' E 002°37'0 0.1
2018-Jun-18 03:59N 51°27' E 002°37'0 0.1
2018-Jun-18 03:21N 51°27' E 002°37'0 0.0
2018-Jun-18 02:58N 51°27' E 002°37'0 0.0
2018-Jun-18 02:31N 51°27' E 002°37'0 0.0
2018-Jun-18 01:46N 51°27' E 002°37'0 0.0
2018-Jun-18 01:21N 51°27' E 002°37'0 0.2
2018-Jun-18 00:59N 51°27' E 002°37'0 0.3
2018-Jun-18 00:30N 51°27' E 002°36'0 0.1
2018-Jun-17 23:40N 51°27' E 002°36'0 0.1
2018-Jun-17 23:13N 51°27' E 002°36'0 0.2
2018-Jun-17 22:56N 51°27' E 002°36'0 0.3
2018-Jun-17 22:31N 51°27' E 002°37'0 0.1
2018-Jun-17 21:04N 51°27' E 002°36'0 0.1
2018-Jun-17 20:38N 51°27' E 002°37'0 0.3
2018-Jun-17 20:29N 51°27' E 002°36'0 0.1
2018-Jun-17 19:47N 51°27' E 002°37'0 0.0
2018-Jun-17 19:26N 51°27' E 002°37'0 0.2
2018-Jun-17 18:56N 51°27' E 002°36'0 0.2
2018-Jun-17 18:30N 51°27' E 002°37'0 0.1
2018-Jun-17 17:58N 51°27' E 002°36'0 0.1
2018-Jun-17 17:28N 51°27' E 002°36'0 0.0
2018-Jun-17 16:58N 51°27' E 002°36'0 0.0
2018-Jun-17 16:23N 51°27' E 002°36'0 0.2
2018-Jun-17 15:58N 51°27' E 002°37'0 0.0
2018-Jun-17 15:28N 51°27' E 002°37'0 0.0
2018-Jun-17 14:57N 51°27' E 002°37'0 0.1
2018-Jun-17 14:28N 51°27' E 002°37'0 0.1
2018-Jun-17 14:00N 51°27' E 002°37'0 0.0
2018-Jun-17 13:22N 51°27' E 002°37'0 0.2
2018-Jun-17 12:16N 51°27' E 002°36'0 0.1
2018-Jun-17 11:43N 51°27' E 002°36'0 0.0
2018-Jun-17 10:49N 51°27' E 002°36'0 0.0
2018-Jun-17 10:05N 51°27' E 002°36'0 0.0
2018-Jun-17 09:56N 51°27' E 002°36'0 0.2
2018-Jun-17 09:24N 51°27' E 002°36'0 0.3
2018-Jun-17 08:54N 51°27' E 002°37'0 0.0
2018-Jun-17 08:25N 51°27' E 002°37'0 0.1
2018-Jun-17 07:53N 51°27' E 002°37'0 0.1
2018-Jun-17 07:30N 51°27' E 002°37'0 0.0
2018-Jun-17 06:59N 51°27' E 002°37'0 0.0
2018-Jun-17 06:23N 51°27' E 002°37'0 0.0
2018-Jun-17 06:00N 51°27' E 002°37'0 0.0
2018-Jun-17 04:34N 51°27' E 002°37'0 0.1
2018-Jun-17 04:07N 51°27' E 002°37'0 0.1
2018-Jun-17 03:53N 51°27' E 002°37'0 0.0
2018-Jun-17 03:20N 51°27' E 002°37'0 0.1
2018-Jun-17 02:58N 51°27' E 002°37'0 0.0
2018-Jun-17 02:29N 51°27' E 002°37'0 0.0
2018-Jun-17 01:42N 51°27' E 002°37'0 0.1
2018-Jun-17 01:28N 51°27' E 002°37'0 0.0
2018-Jun-17 00:05N 51°27' E 002°37'0 0.4
2018-Jun-16 23:53N 51°27' E 002°36'0 0.2
2018-Jun-16 23:29N 51°27' E 002°36'0 0.1
2018-Jun-16 22:59N 51°27' E 002°36'0 0.0
2018-Jun-16 22:27N 51°27' E 002°36'0 0.2
2018-Jun-16 22:00N 51°27' E 002°36'0 0.2
2018-Jun-16 21:18N 51°27' E 002°36'0 0.2
2018-Jun-16 20:58N 51°27' E 002°37'0 0.0
2018-Jun-16 20:16N 51°27' E 002°37'0 0.1
2018-Jun-16 19:50N 51°27' E 002°37'0 0.2
2018-Jun-16 19:30N 51°27' E 002°37'0 0.0
2018-Jun-16 18:55N 51°27' E 002°37'0 0.1
2018-Jun-16 18:29N 51°27' E 002°36'0 0.1
2018-Jun-16 18:00N 51°27' E 002°37'1 1.6
2018-Jun-16 17:30N 51°28' E 002°37'4 9.0
2018-Jun-16 17:00N 51°25' E 002°31'510.1
2018-Jun-16 16:28N 51°21' E 002°25'714.6
2018-Jun-16 16:00N 51°17' E 002°16'816.4
2018-Jun-16 15:30N 51°13' E 002°05'816.9
2018-Jun-16 15:00N 51°09' E 001°53'917.5
2018-Jun-16 14:30N 51°04' E 001°42'918.0
2018-Jun-16 14:01N 50°58' E 001°31'1217.5
2018-Jun-16 13:20N 50°47' E 001°24'716.4
2018-Jun-16 12:55N 50°41' E 001°19'1615.9
2018-Jun-16 11:56N 50°31' E 000°60'2416.4
2018-Jun-16 10:29N 50°24' E 000°24'917.2
2018-Jun-16 09:59N 50°22' E 000°11'817.0
2018-Jun-16 09:30N 50°19' W 000°01'816.8
2018-Jun-16 09:01N 50°17' W 000°14'816.9
2018-Jun-16 08:30N 50°15' W 000°27'816.6
2018-Jun-16 08:00N 50°13' W 000°39'816.0
2018-Jun-16 07:30N 50°11' W 000°51'1614.9
2018-Jun-16 06:28N 50°07' W 001°15'713.6
2018-Jun-16 05:57N 50°05' W 001°25'1612.0
2018-Jun-16 04:39N 50°01' W 001°49'210.8
2018-Jun-16 04:28N 50°01' W 001°51'5811.5
2018-Jun-15 23:28N 49°45' W 003°18'70 2.7
2018-Jun-14 21:32N 49°36' W 005°06'11 0.6
2018-Jun-14 02:34N 49°39' W 005°21'0 2.7
2018-Jun-14 02:28N 49°39' W 005°22'2 2.5
2018-Jun-14 01:51N 49°38' W 005°23'1 2.3
2018-Jun-14 01:21N 49°37' W 005°24'1 2.0
2018-Jun-14 00:58N 49°37' W 005°25'1 1.9
2018-Jun-14 00:30N 49°36' W 005°24'1 1.9
2018-Jun-14 00:00N 49°35' W 005°24'1 1.8
2018-Jun-13 23:24N 49°34' W 005°23'4 2.2
2018-Jun-13 21:37N 49°32' W 005°17'2 8.2
2018-Jun-13 21:20N 49°31' W 005°14'4 9.4
2018-Jun-13 20:57N 49°28' W 005°10'4 9.2
2018-Jun-13 20:28N 49°25' W 005°06'2 3.7
2018-Jun-13 19:56N 49°24' W 005°04'1 1.9
2018-Jun-13 19:24N 49°24' W 005°05'1 1.6
2018-Jun-13 18:34N 49°25' W 005°07'0 1.9
2018-Jun-13 18:24N 49°25' W 005°07'1 2.1
2018-Jun-13 17:59N 49°25' W 005°09'2 2.2
2018-Jun-13 17:07N 49°25' W 005°11'36 1.1
2018-Jun-12 09:13N 49°17' W 004°18'23 9.2
2018-Jun-12 06:44N 49°05' W 004°48'3 9.5
2018-Jun-12 06:27N 49°03' W 004°51'7 9.8
2018-Jun-12 05:44N 48°60' W 005°00'210.0
2018-Jun-12 05:30N 48°59' W 005°03'510.3
2018-Jun-12 05:00N 48°56' W 005°10'610.7
2018-Jun-12 04:29N 48°54' W 005°18'511.0
2018-Jun-12 04:00N 48°51' W 005°25'610.8
2018-Jun-12 03:29N 48°48' W 005°32'5010.8
2018-Jun-11 22:53N 48°05' W 006°10'  

Dump ship's entire track history